Time;durP1;ratioP1;P1;durP2;ratioP2;P2;SDS_P1;SDS_P2;PMS_P1;PMS_P2;Temp;Humidity;BMP_temperature;BMP_pressure;BME280_temperature;BME280_humidity;BME280_pressure;Samples;Min_cycle;Max_cycle;Signal;HPM_P1;HPM_P2
2022/03/13 00:01:40;;;;;;;17.55;8.95;;;6.70;46.60;;;;;;5057181;28;20024;-78
2022/03/13 00:04:06;;;;;;;20.63;10.05;;;6.60;46.80;;;;;;5057604;28;20489;-77
2022/03/13 00:06:37;;;;;;;19.92;10.05;;;6.60;46.90;;;;;;5056689;28;20022;-78
2022/03/13 00:09:05;;;;;;;20.60;10.15;;;6.60;47.00;;;;;;5058336;28;20103;-78
2022/03/13 00:11:31;;;;;;;20.80;10.38;;;6.60;47.10;;;;;;5063750;28;20021;-78
2022/03/13 00:13:58;;;;;;;17.27;9.73;;;6.50;47.20;;;;;;5062685;28;20021;-77
2022/03/13 00:16:24;;;;;;;19.88;9.30;;;6.50;47.30;;;;;;5045864;28;20021;-77
2022/03/13 00:18:50;;;;;;;18.80;9.32;;;6.50;47.60;;;;;;5060126;28;20092;-78
2022/03/13 00:21:17;;;;;;;20.50;10.00;;;6.50;47.60;;;;;;5060613;28;20685;-76
2022/03/13 00:23:44;;;;;;;18.58;9.32;;;6.50;47.80;;;;;;5060807;28;20435;-78
2022/03/13 00:26:11;;;;;;;18.02;9.60;;;6.40;47.80;;;;;;5062901;28;20476;-77
2022/03/13 00:28:37;;;;;;;23.55;9.82;;;6.40;47.80;;;;;;5063611;28;20017;-78
2022/03/13 00:31:03;;;;;;;18.33;9.65;;;6.40;48.00;;;;;;5062140;28;20025;-78
2022/03/13 00:33:29;;;;;;;22.77;9.77;;;6.40;48.10;;;;;;5065210;28;20028;-77
2022/03/13 00:35:54;;;;;;;21.40;9.80;;;6.40;48.20;;;;;;5046932;28;20029;-76
2022/03/13 00:38:22;;;;;;;15.27;9.30;;;6.40;48.20;;;;;;5059859;28;20108;-79
2022/03/13 00:40:51;;;;;;;18.17;9.77;;;6.30;48.30;;;;;;5058792;28;20060;-79
2022/03/13 00:43:21;;;;;;;19.45;9.45;;;6.30;48.50;;;;;;5059344;28;20017;-77
2022/03/13 00:45:47;;;;;;;19.25;9.65;;;6.30;48.50;;;;;;5058956;28;20021;-78
2022/03/13 00:48:12;;;;;;;18.05;9.73;;;6.30;48.60;;;;;;5059515;28;20389;-77
2022/03/13 00:50:38;;;;;;;18.63;10.10;;;6.20;48.70;;;;;;5058863;28;20028;-78
2022/03/13 00:53:05;;;;;;;19.65;10.77;;;6.20;48.90;;;;;;5047543;28;20096;-79
2022/03/13 00:55:31;;;;;;;22.42;10.63;;;6.10;48.90;;;;;;5061924;28;20023;-75
2022/03/13 00:57:56;;;;;;;18.60;10.05;;;6.10;49.10;;;;;;5069337;28;20044;-77
2022/03/13 01:00:22;;;;;;;22.48;10.10;;;6.10;49.20;;;;;;5069313;28;20033;-74
2022/03/13 01:02:49;;;;;;;26.20;10.77;;;6.00;49.30;;;;;;5054031;28;20104;-75
2022/03/13 01:05:23;;;;;;;19.75;10.13;;;6.00;49.30;;;;;;5053753;28;20021;-76
2022/03/13 01:07:51;;;;;;;19.27;10.23;;;6.00;49.40;;;;;;5063115;28;20021;-75
2022/03/13 01:10:16;;;;;;;22.67;9.93;;;5.90;49.50;;;;;;5054289;28;20029;-76
2022/03/13 01:12:43;;;;;;;20.58;10.40;;;5.90;49.60;;;;;;5054170;28;20020;-76
2022/03/13 01:15:09;;;;;;;18.17;9.65;;;5.90;49.70;;;;;;5054159;28;20143;-73
2022/03/13 01:17:35;;;;;;;19.15;9.73;;;5.90;49.70;;;;;;5036357;28;20024;-74
2022/03/13 01:20:02;;;;;;;19.70;10.38;;;5.80;50.00;;;;;;5054721;28;20107;-75
2022/03/13 01:22:28;;;;;;;24.83;11.13;;;5.70;50.10;;;;;;5054399;28;20047;-75
2022/03/13 01:24:54;;;;;;;20.45;9.93;;;5.70;50.20;;;;;;5054751;28;20037;-76
2022/03/13 01:27:21;;;;;;;23.00;10.90;;;5.60;50.30;;;;;;5056231;28;20098;-76
2022/03/13 01:29:47;;;;;;;23.63;9.98;;;5.60;50.40;;;;;;5038398;28;20093;-75
2022/03/13 01:32:14;;;;;;;18.85;10.20;;;5.60;50.40;;;;;;5056847;28;20051;-73
2022/03/13 01:34:51;;;;;;;23.48;9.85;;;5.60;50.40;;;;;;5038009;28;20020;-76
2022/03/13 01:37:34;;;;;;;25.55;10.77;;;5.60;50.50;;;;;;5055827;28;20024;-75
2022/03/13 01:40:07;;;;;;;20.58;10.75;;;5.50;50.50;;;;;;5053368;28;20028;-76
2022/03/13 01:42:33;;;;;;;19.95;10.20;;;5.60;50.50;;;;;;5053632;28;20037;-77
2022/03/13 01:44:59;;;;;;;19.90;10.55;;;5.50;50.60;;;;;;5035335;28;20040;-74
2022/03/13 01:47:25;;;;;;;22.98;10.25;;;5.50;50.60;;;;;;5052766;28;20021;-76
2022/03/13 01:49:51;;;;;;;25.23;10.57;;;5.40;50.70;;;;;;5053029;28;20390;-74
2022/03/13 01:52:26;;;;;;;20.13;10.20;;;5.40;50.80;;;;;;5053050;28;20028;-75
2022/03/13 01:54:52;;;;;;;22.17;10.98;;;5.30;50.80;;;;;;5053389;28;20021;-75
2022/03/13 01:57:20;;;;;;;22.27;10.55;;;5.30;50.90;;;;;;5053993;28;20072;-77
2022/03/13 01:59:50;;;;;;;20.42;10.70;;;5.30;51.00;;;;;;5058283;28;20028;-75
2022/03/13 02:02:16;;;;;;;19.42;10.43;;;5.20;51.00;;;;;;5058331;28;20013;-74
2022/03/13 02:04:43;;;;;;;19.02;9.98;;;5.20;51.00;;;;;;5057672;28;20055;-74
2022/03/13 02:07:08;;;;;;;20.17;10.52;;;5.20;50.90;;;;;;5053061;28;20060;-74
2022/03/13 02:09:34;;;;;;;19.92;10.63;;;5.20;51.20;;;;;;5052972;28;20064;-75
2022/03/13 02:12:01;;;;;;;18.60;10.40;;;5.20;51.30;;;;;;5052633;28;20028;-74
2022/03/13 02:14:26;;;;;;;18.17;9.70;;;5.10;51.30;;;;;;5052411;28;20054;-76
2022/03/13 02:16:53;;;;;;;20.48;10.15;;;5.10;51.50;;;;;;5051541;28;20067;-75
2022/03/13 02:19:19;;;;;;;20.65;10.88;;;5.00;51.60;;;;;;5052264;28;20029;-76
2022/03/13 02:21:51;;;;;;;21.75;10.77;;;5.00;51.60;;;;;;5052943;28;20021;-75
2022/03/13 02:24:24;;;;;;;25.58;10.50;;;5.00;51.70;;;;;;5052658;28;20116;-75
2022/03/13 02:27:02;;;;;;;20.70;10.65;;;5.00;51.90;;;;;;5052859;28;20106;-74
2022/03/13 02:29:29;;;;;;;21.70;10.38;;;4.90;52.10;;;;;;5034876;28;20482;-74
2022/03/13 02:31:58;;;;;;;22.05;10.82;;;4.80;52.30;;;;;;5059688;28;20041;-76
2022/03/13 02:34:24;;;;;;;20.92;10.07;;;4.80;52.40;;;;;;5052598;28;20037;-73
2022/03/13 02:36:49;;;;;;;18.42;9.88;;;4.80;52.40;;;;;;5052404;28;20025;-76
2022/03/13 02:39:16;;;;;;;19.83;10.50;;;4.70;52.40;;;;;;5052435;28;20056;-76
2022/03/13 02:41:43;;;;;;;23.67;11.00;;;4.70;52.50;;;;;;5052552;28;20036;-75
2022/03/13 02:44:11;;;;;;;22.05;10.43;;;4.70;52.40;;;;;;5052128;28;20021;-75
2022/03/13 02:46:45;;;;;;;20.33;10.13;;;4.70;52.30;;;;;;5051936;28;20059;-74
2022/03/13 02:49:15;;;;;;;20.52;10.43;;;4.70;52.30;;;;;;5052188;28;20086;-76
2022/03/13 02:51:41;;;;;;;25.38;11.15;;;4.70;52.30;;;;;;5059856;28;20025;-75
2022/03/13 02:54:08;;;;;;;22.05;10.40;;;4.70;52.40;;;;;;5051861;28;20017;-74
2022/03/13 02:56:33;;;;;;;19.25;10.23;;;4.70;52.30;;;;;;5051618;28;20111;-77
2022/03/13 02:58:59;;;;;;;23.52;10.88;;;4.70;52.50;;;;;;5052086;28;20155;-75
2022/03/13 03:01:24;;;;;;;21.17;10.75;;;4.70;52.60;;;;;;5052236;28;20036;-76
2022/03/13 03:03:53;;;;;;;24.05;11.15;;;4.60;52.80;;;;;;5053580;28;20029;-74
2022/03/13 03:06:19;;;;;;;24.05;10.95;;;4.60;52.90;;;;;;5053124;28;20087;-75
2022/03/13 03:08:45;;;;;;;23.15;11.15;;;4.50;53.00;;;;;;5053376;28;20036;-74
2022/03/13 03:11:10;;;;;;;20.48;10.73;;;4.50;53.10;;;;;;5055254;28;20470;-74
2022/03/13 03:13:36;;;;;;;25.52;11.07;;;4.40;53.20;;;;;;5054453;28;20021;-75
2022/03/13 03:16:02;;;;;;;22.40;10.85;;;;;;;;;;5040488;28;20402;-76
2022/03/13 03:18:28;;;;;;;22.63;11.05;;;4.40;52.90;;;;;;5072600;28;20450;-76
2022/03/13 03:20:54;;;;;;;23.15;11.35;;;4.30;53.50;;;;;;5055703;28;20032;-77
2022/03/13 03:23:19;;;;;;;30.70;11.38;;;4.20;53.70;;;;;;5055771;28;20402;-76
2022/03/13 03:25:45;;;;;;;26.60;11.68;;;4.20;53.80;;;;;;5055457;28;20025;-74
2022/03/13 03:28:14;;;;;;;22.95;10.90;;;4.20;53.90;;;;;;5055789;28;20436;-74
2022/03/13 03:30:40;;;;;;;24.20;11.63;;;4.20;53.80;;;;;;5055829;28;20397;-75
2022/03/13 03:33:06;;;;;;;29.80;11.57;;;4.20;54.00;;;;;;5055707;28;20017;-74
2022/03/13 03:35:31;;;;;;;31.92;11.65;;;4.20;54.00;;;;;;5055630;28;20027;-74
2022/03/13 03:37:57;;;;;;;27.95;11.02;;;4.10;54.00;;;;;;5055777;28;20044;-75
2022/03/13 03:40:24;;;;;;;26.33;12.00;;;4.00;54.30;;;;;;5055789;28;20478;-75
2022/03/13 03:42:50;;;;;;;22.48;11.60;;;3.90;54.50;;;;;;5055525;28;20103;-76
2022/03/13 03:45:18;;;;;;;22.95;11.07;;;4.00;54.80;;;;;;5055291;28;20474;-76
2022/03/13 03:47:47;;;;;;;27.05;12.77;;;3.90;54.80;;;;;;5057002;28;20389;-75
2022/03/13 03:50:13;;;;;;;27.85;13.25;;;3.80;55.00;;;;;;5055686;28;20036;-76
2022/03/13 03:52:39;;;;;;;30.33;12.10;;;3.90;55.20;;;;;;5057159;28;20048;-75
2022/03/13 03:55:05;;;;;;;26.80;12.25;;;3.80;55.20;;;;;;5058578;28;20465;-75
2022/03/13 03:57:31;;;;;;;26.75;11.40;;;3.80;55.20;;;;;;5059642;28;20025;-75
2022/03/13 03:59:56;;;;;;;28.73;12.43;;;3.80;55.40;;;;;;5058157;28;20033;-75
2022/03/13 04:02:22;;;;;;;29.23;13.10;;;3.70;55.70;;;;;;5056697;28;20043;-75
2022/03/13 04:04:47;;;;;;;35.80;14.60;;;3.70;55.60;;;;;;5054938;28;20032;-75
2022/03/13 04:07:13;;;;;;;27.83;13.60;;;3.80;55.70;;;;;;5036738;28;20033;-78
2022/03/13 04:09:40;;;;;;;26.10;13.35;;;3.70;55.70;;;;;;5055009;28;20090;-75
2022/03/13 04:12:07;;;;;;;30.35;13.65;;;3.70;55.70;;;;;;5055307;28;20386;-76
2022/03/13 04:14:34;;;;;;;29.23;12.60;;;3.70;55.80;;;;;;5056928;28;20378;-77
2022/03/13 04:16:59;;;;;;;31.98;12.48;;;3.70;56.00;;;;;;5054505;28;20032;-76
2022/03/13 04:19:26;;;;;;;28.42;13.63;;;3.70;55.80;;;;;;5054841;28;20021;-76
2022/03/13 04:21:52;;;;;;;23.67;12.55;;;3.70;55.90;;;;;;5056115;28;20076;-75
2022/03/13 04:24:17;;;;;;;25.63;13.50;;;3.70;56.10;;;;;;5054730;28;20087;-76
2022/03/13 04:26:44;;;;;;;31.25;13.98;;;3.70;56.10;;;;;;5054521;28;20086;-76
2022/03/13 04:29:10;;;;;;;33.67;15.10;;;3.60;56.00;;;;;;5055565;28;20116;-76
2022/03/13 04:31:38;;;;;;;31.55;13.15;;;3.60;56.20;;;;;;5056756;28;20096;-74
2022/03/13 04:34:04;;;;;;;28.60;14.27;;;3.60;56.10;;;;;;5056708;28;20647;-76
2022/03/13 04:36:33;;;;;;;30.00;13.32;;;3.50;56.40;;;;;;5055354;28;20090;-77
2022/03/13 04:38:59;;;;;;;28.13;12.98;;;3.50;56.50;;;;;;5055038;28;20020;-75
2022/03/13 04:41:25;;;;;;;31.50;13.55;;;3.50;56.60;;;;;;5037088;28;20029;-76
2022/03/13 04:43:53;;;;;;;29.10;14.73;;;3.40;56.80;;;;;;5054267;28;20028;-76
2022/03/13 04:46:18;;;;;;;37.17;15.10;;;3.40;57.00;;;;;;5054457;28;20055;-76
2022/03/13 04:48:44;;;;;;;31.15;13.80;;;3.40;56.90;;;;;;5037141;28;20033;-77
2022/03/13 04:51:09;;;;;;;31.33;14.02;;;3.40;56.90;;;;;;5055366;28;20021;-76
2022/03/13 04:53:35;;;;;;;29.40;14.30;;;3.40;56.80;;;;;;5054205;28;20064;-76
2022/03/13 04:56:00;;;;;;;33.45;14.68;;;3.40;57.00;;;;;;5053097;28;20024;-76
2022/03/13 04:58:26;;;;;;;32.20;14.00;;;3.30;57.10;;;;;;5053480;28;20478;-76
2022/03/13 05:00:52;;;;;;;28.30;14.07;;;3.40;57.00;;;;;;5053205;28;20037;-76
2022/03/13 05:03:19;;;;;;;32.38;13.98;;;3.30;57.10;;;;;;5048139;28;20033;-76
2022/03/13 05:05:45;;;;;;;28.63;13.70;;;3.30;57.00;;;;;;5040878;28;20022;-75
2022/03/13 05:08:15;;;;;;;31.92;13.40;;;3.30;57.00;;;;;;5033116;28;20025;-77
2022/03/13 05:10:42;;;;;;;31.58;13.68;;;3.30;57.20;;;;;;5033062;28;20064;-77
2022/03/13 05:13:09;;;;;;;33.95;14.50;;;3.20;57.20;;;;;;5032733;28;20019;-76
2022/03/13 05:15:36;;;;;;;31.02;13.73;;;3.10;57.20;;;;;;5031608;28;20026;-77
2022/03/13 05:18:02;;;;;;;28.30;13.20;;;3.10;57.30;;;;;;5033080;28;20023;-76
2022/03/13 05:20:28;;;;;;;27.92;12.68;;;3.10;57.40;;;;;;5033046;28;20076;-75
2022/03/13 05:22:55;;;;;;;28.52;13.77;;;3.10;57.50;;;;;;5033641;28;20033;-76
2022/03/13 05:25:23;;;;;;;24.05;12.07;;;3.00;57.60;;;;;;5032427;28;20029;-77
2022/03/13 05:27:49;;;;;;;33.38;13.00;;;3.10;57.60;;;;;;5042444;28;20026;-77
2022/03/13 05:30:14;;;;;;;31.00;13.85;;;3.00;57.70;;;;;;5038372;28;20030;-75
2022/03/13 05:32:40;;;;;;;31.67;12.60;;;3.00;57.70;;;;;;5033228;28;20068;-75
2022/03/13 05:35:06;;;;;;;31.88;13.73;;;2.90;57.60;;;;;;5032839;28;20026;-76
2022/03/13 05:37:31;;;;;;;29.42;13.95;;;2.90;57.70;;;;;;5041174;28;20534;-76
2022/03/13 05:39:57;;;;;;;31.10;13.18;;;2.90;58.40;;;;;;5041028;28;20399;-75
2022/03/13 05:42:24;;;;;;;31.17;13.60;;;2.80;57.90;;;;;;5032856;28;20072;-75
2022/03/13 05:44:53;;;;;;;32.85;13.20;;;2.90;57.90;;;;;;5032694;28;20105;-74
2022/03/13 05:47:19;;;;;;;32.13;12.15;;;2.80;57.90;;;;;;5032385;28;20029;-79
2022/03/13 05:49:46;;;;;;;28.55;13.18;;;2.90;58.00;;;;;;5033169;28;20033;-74
2022/03/13 05:52:13;;;;;;;28.35;13.40;;;2.90;58.00;;;;;;5032461;28;20071;-76
2022/03/13 05:54:39;;;;;;;29.48;12.90;;;2.80;58.10;;;;;;5033644;28;20018;-75
2022/03/13 05:57:06;;;;;;;28.67;13.15;;;2.70;58.20;;;;;;5034146;28;20252;-76
2022/03/13 05:59:33;;;;;;;34.00;13.60;;;2.70;58.40;;;;;;5033969;28;20112;-76
2022/03/13 06:02:01;;;;;;;29.40;13.48;;;2.70;58.40;;;;;;5033634;28;20048;-75
2022/03/13 06:04:26;;;;;;;33.25;13.07;;;2.70;58.40;;;;;;5032928;28;20025;-77
2022/03/13 06:06:52;;;;;;;28.90;13.15;;;2.60;58.60;;;;;;5032767;28;20525;-76
2022/03/13 06:09:18;;;;;;;27.85;13.73;;;2.60;58.50;;;;;;5033512;28;20025;-76
2022/03/13 06:11:43;;;;;;;33.38;13.27;;;2.70;58.50;;;;;;5033358;28;20025;-74
2022/03/13 06:14:09;;;;;;;34.80;12.77;;;2.70;58.40;;;;;;5033146;28;20108;-77
2022/03/13 06:16:35;;;;;;;31.85;13.00;;;2.70;58.40;;;;;;5034839;28;20087;-75
2022/03/13 06:19:00;;;;;;;28.58;12.73;;;2.80;58.20;;;;;;5037724;28;20399;-76
2022/03/13 06:21:26;;;;;;;26.85;13.00;;;2.80;58.00;;;;;;5036501;28;20032;-75
2022/03/13 06:23:51;;;;;;;32.50;13.38;;;2.80;58.00;;;;;;5040257;28;20041;-74
2022/03/13 06:26:17;;;;;;;31.85;13.20;;;2.80;57.90;;;;;;5040996;28;20501;-75
2022/03/13 06:28:42;;;;;;;29.63;13.20;;;2.90;57.90;;;;;;5034153;28;20029;-74
2022/03/13 06:31:09;;;;;;;24.92;12.60;;;2.90;57.80;;;;;;5031352;28;20017;-74
2022/03/13 06:33:34;;;;;;;24.38;11.50;;;3.00;57.70;;;;;;5031509;28;20025;-76
2022/03/13 06:36:00;;;;;;;31.90;12.60;;;3.00;57.40;;;;;;5033737;28;20021;-75
2022/03/13 06:38:26;;;;;;;27.08;12.57;;;3.00;57.10;;;;;;5034763;28;20071;-76
2022/03/13 06:40:52;;;;;;;24.60;12.48;;;3.00;56.80;;;;;;5031826;28;20423;-76
2022/03/13 06:43:17;;;;;;;32.58;12.27;;;3.20;56.70;;;;;;5034358;28;20025;-75
2022/03/13 06:45:43;;;;;;;28.80;12.63;;;3.20;56.10;;;;;;5035620;28;20037;-75
2022/03/13 06:48:08;;;;;;;27.55;13.07;;;3.30;56.00;;;;;;5034789;28;20025;-74
2022/03/13 06:50:35;;;;;;;26.45;11.90;;;3.30;55.80;;;;;;5037039;28;20358;-76
2022/03/13 06:53:01;;;;;;;32.33;13.40;;;3.40;55.60;;;;;;5032798;28;20057;-75
2022/03/13 06:55:27;;;;;;;26.65;12.40;;;3.40;55.60;;;;;;5032290;28;20028;-74
2022/03/13 06:57:53;;;;;;;26.17;12.30;;;3.40;55.30;;;;;;5032827;28;20316;-74
2022/03/13 07:00:21;;;;;;;24.17;12.07;;;3.60;55.10;;;;;;5032681;28;20486;-75
2022/03/13 07:02:47;;;;;;;30.65;14.05;;;3.70;54.80;;;;;;5032207;28;20022;-74
2022/03/13 07:05:13;;;;;;;27.77;12.60;;;3.70;54.60;;;;;;5031743;28;20038;-75
2022/03/13 07:07:38;;;;;;;31.10;12.65;;;3.80;54.40;;;;;;5033007;28;20056;-76
2022/03/13 07:10:06;;;;;;;31.58;13.20;;;3.80;54.40;;;;;;5032720;28;20021;-76
2022/03/13 07:12:31;;;;;;;27.10;12.68;;;3.90;54.20;;;;;;5038628;28;20097;-75
2022/03/13 07:14:58;;;;;;;30.48;12.02;;;3.90;54.00;;;;;;5032213;28;20033;-75
2022/03/13 07:17:24;;;;;;;26.98;12.07;;;4.10;53.80;;;;;;5032532;28;20026;-77
2022/03/13 07:19:50;;;;;;;27.50;11.80;;;4.10;53.50;;;;;;5034678;28;20474;-77
2022/03/13 07:22:16;;;;;;;26.10;12.18;;;4.20;53.30;;;;;;5034406;28;20041;-75
2022/03/13 07:24:43;;;;;;;30.27;13.15;;;4.30;53.20;;;;;;5033223;28;20492;-77
2022/03/13 07:27:09;;;;;;;31.23;12.52;;;4.20;53.00;;;;;;5033436;28;20021;-76
2022/03/13 07:29:35;;;;;;;30.67;12.27;;;4.30;52.90;;;;;;5036363;28;20061;-77
2022/03/13 07:32:00;;;;;;;24.10;11.40;;;4.40;52.70;;;;;;5037209;28;20021;-77
2022/03/13 07:34:27;;;;;;;24.02;11.02;;;4.50;52.50;;;;;;5038475;28;20029;-79
2022/03/13 07:36:54;;;;;;;23.95;11.90;;;4.50;52.30;;;;;;5039368;28;20091;-78
2022/03/13 07:39:24;;;;;;;28.95;12.02;;;4.70;52.20;;;;;;5037884;28;20363;-77
2022/03/13 07:41:51;;;;;;;25.13;12.05;;;4.70;52.20;;;;;;5040262;28;20030;-78
2022/03/13 07:44:17;;;;;;;27.35;11.40;;;4.70;52.10;;;;;;5038442;28;20028;-78
2022/03/13 07:46:42;;;;;;;25.00;11.68;;;4.90;51.60;;;;;;5034037;28;20023;-78
2022/03/13 07:49:08;;;;;;;27.77;12.05;;;4.80;51.30;;;;;;5031578;28;20391;-75
2022/03/13 07:51:34;;;;;;;29.15;12.10;;;4.90;51.50;;;;;;5031921;28;20095;-76
2022/03/13 07:54:03;;;;;;;33.83;12.68;;;4.90;51.40;;;;;;5031369;28;20026;-76
2022/03/13 07:56:29;;;;;;;29.55;11.60;;;5.00;51.20;;;;;;5031631;28;20422;-76
2022/03/13 07:58:55;;;;;;;26.63;11.25;;;5.10;50.60;;;;;;5032476;28;20110;-75
2022/03/13 08:01:20;;;;;;;28.02;12.05;;;5.20;50.60;;;;;;5037111;28;20052;-76
2022/03/13 08:03:47;;;;;;;30.98;12.30;;;5.40;50.60;;;;;;5035337;28;20056;-75
2022/03/13 08:06:13;;;;;;;25.40;11.73;;;5.50;50.40;;;;;;5033168;28;20445;-76
2022/03/13 08:08:39;;;;;;;24.38;11.65;;;5.60;49.80;;;;;;5035599;28;20053;-75
2022/03/13 08:11:05;;;;;;;25.67;11.45;;;5.70;49.90;;;;;;5034948;28;20498;-75
2022/03/13 08:13:30;;;;;;;23.42;11.27;;;5.90;49.50;;;;;;5033458;28;20029;-79
2022/03/13 08:15:56;;;;;;;24.38;11.15;;;6.00;48.90;;;;;;5035075;28;20382;-75
2022/03/13 08:18:22;;;;;;;23.20;11.65;;;6.10;48.50;;;;;;5035037;28;20052;-76
2022/03/13 08:20:47;;;;;;;23.27;11.15;;;6.20;48.50;;;;;;5035381;28;20109;-76
2022/03/13 08:23:14;;;;;;;24.73;11.95;;;6.20;48.50;;;;;;5035506;28;20044;-75
2022/03/13 08:25:39;;;;;;;24.17;11.65;;;6.40;49.20;;;;;;5037303;28;20048;-76
2022/03/13 08:28:06;;;;;;;22.40;11.40;;;6.50;47.90;;;;;;5057691;28;20025;-75
2022/03/13 08:30:32;;;;;;;21.90;11.30;;;6.60;47.40;;;;;;5058846;28;20021;-76
2022/03/13 08:32:58;;;;;;;24.83;11.10;;;6.60;46.90;;;;;;5057347;28;20021;-75
2022/03/13 08:35:24;;;;;;;20.42;10.90;;;6.70;47.00;;;;;;5039795;28;20021;-76
2022/03/13 08:37:51;;;;;;;25.02;11.52;;;6.90;47.60;;;;;;5059439;28;20044;-75
2022/03/13 08:40:16;;;;;;;23.38;10.95;;;7.10;46.80;;;;;;5061295;28;20486;-77
2022/03/13 08:42:42;;;;;;;20.52;11.05;;;7.70;46.00;;;;;;5056553;28;20025;-74
2022/03/13 08:45:08;;;;;;;22.92;11.30;;;8.30;44.50;;;;;;5057861;28;20028;-75
2022/03/13 08:47:34;;;;;;;24.05;10.90;;;8.90;43.70;;;;;;5054355;28;20021;-74
2022/03/13 08:50:00;;;;;;;21.65;10.85;;;9.80;42.40;;;;;;5055413;28;20106;-75
2022/03/13 08:52:26;;;;;;;21.80;10.77;;;10.70;40.80;;;;;;5055373;28;20028;-75
2022/03/13 08:54:51;;;;;;;21.50;10.43;;;11.50;39.70;;;;;;5055995;28;20025;-75
2022/03/13 08:57:17;;;;;;;24.08;11.15;;;12.10;38.20;;;;;;5057161;28;20470;-76
2022/03/13 08:59:43;;;;;;;24.85;10.80;;;12.30;37.10;;;;;;5055872;28;20041;-75
2022/03/13 09:02:09;;;;;;;30.02;11.60;;;12.30;37.40;;;;;;5054932;28;20402;-76
2022/03/13 09:04:35;;;;;;;19.58;10.30;;;12.70;36.80;;;;;;5055110;28;20021;-76
2022/03/13 09:07:01;;;;;;;18.65;10.43;;;13.30;35.90;;;;;;5056287;28;20429;-74
2022/03/13 09:09:27;;;;;;;23.85;11.00;;;14.00;34.70;;;;;;5054432;28;20021;-76
2022/03/13 09:11:53;;;;;;;23.42;9.82;;;14.60;34.50;;;;;;5053990;28;20202;-77
2022/03/13 09:14:19;;;;;;;21.85;10.77;;;15.20;33.70;;;;;;5054028;28;20025;-76
2022/03/13 09:16:45;;;;;;;17.42;10.10;;;15.60;33.10;;;;;;5061062;28;20024;-74
2022/03/13 09:19:12;;;;;;;19.55;10.63;;;16.10;32.30;;;;;;5053130;28;20017;-75
2022/03/13 09:21:38;;;;;;;19.90;10.40;;;16.10;32.10;;;;;;5052937;28;20036;-75
2022/03/13 09:24:09;;;;;;;19.00;10.52;;;16.40;31.90;;;;;;5053135;28;20458;-75
2022/03/13 09:26:35;;;;;;;20.58;10.48;;;16.70;31.70;;;;;;5054037;28;20025;-77
2022/03/13 09:29:02;;;;;;;18.10;9.88;;;17.10;31.20;;;;;;5054937;28;20070;-75
2022/03/13 09:31:28;;;;;;;17.77;9.77;;;17.00;30.70;;;;;;5053061;28;20023;-76
2022/03/13 09:33:54;;;;;;;17.83;9.20;;;17.30;30.50;;;;;;5053875;28;20029;-73
2022/03/13 09:36:19;;;;;;;19.70;10.27;;;17.80;30.00;;;;;;5056807;28;20021;-73
2022/03/13 09:38:45;;;;;;;21.45;9.90;;;18.00;29.80;;;;;;5059453;28;20025;-75
2022/03/13 09:41:12;;;;;;;20.15;10.25;;;18.30;29.70;;;;;;5059363;28;20021;-72
2022/03/13 09:43:38;;;;;;;15.00;9.00;;;18.70;29.50;;;;;;5036246;28;20429;-73
2022/03/13 09:46:04;;;;;;;17.42;10.05;;;18.90;29.10;;;;;;5059834;28;20025;-75
2022/03/13 09:48:30;;;;;;;19.42;9.45;;;18.90;28.70;;;;;;5057750;28;20101;-76
2022/03/13 09:50:56;;;;;;;18.95;9.63;;;19.10;28.50;;;;;;5056365;28;20036;-76
2022/03/13 09:53:22;;;;;;;15.48;8.55;;;19.30;28.20;;;;;;5036568;28;20104;-77
2022/03/13 09:55:48;;;;;;;17.38;9.05;;;19.00;28.30;;;;;;5053571;28;20108;-76
2022/03/13 09:58:14;;;;;;;14.85;8.98;;;19.20;28.20;;;;;;5058093;28;20046;-75
2022/03/13 10:00:39;;;;;;;15.18;9.07;;;19.60;27.80;;;;;;5055544;28;20055;-75
2022/03/13 10:03:08;;;;;;;16.95;9.35;;;20.10;27.50;;;;;;5034242;28;20108;-75
2022/03/13 10:05:42;;;;;;;22.02;9.10;;;20.20;27.50;;;;;;5033910;28;20144;-74
2022/03/13 10:08:08;;;;;;;16.65;9.07;;;20.20;27.20;;;;;;5052053;28;20074;-75
2022/03/13 10:10:50;;;;;;;15.93;8.93;;;20.10;26.90;;;;;;5051721;28;20033;-76
2022/03/13 10:13:32;;;;;;;17.42;9.05;;;20.20;27.10;;;;;;5051743;28;20025;-74
2022/03/13 10:15:57;;;;;;;19.23;8.63;;;20.60;27.10;;;;;;5051803;28;20021;-75
2022/03/13 10:18:25;;;;;;;16.60;8.90;;;20.90;26.90;;;;;;5054603;28;20033;-76
2022/03/13 10:20:51;;;;;;;17.77;9.07;;;21.20;26.90;;;;;;5059617;28;20029;-74
2022/03/13 10:23:19;;;;;;;16.10;9.85;;;21.40;26.30;;;;;;5052100;28;20032;-76
2022/03/13 10:25:48;;;;;;;17.35;8.60;;;21.20;26.30;;;;;;5050863;28;20108;-75
2022/03/13 10:28:19;;;;;;;15.75;8.10;;;21.00;26.40;;;;;;5051559;28;20033;-75
2022/03/13 10:30:48;;;;;;;16.70;9.27;;;21.20;26.40;;;;;;5051132;28;20021;-74
2022/03/13 10:33:15;;;;;;;18.33;11.05;;;21.00;26.40;;;;;;5059308;28;20052;-75
2022/03/13 10:35:45;;;;;;;17.00;9.15;;;21.20;26.40;;;;;;5071938;28;20059;-73
2022/03/13 10:38:19;;;;;;;18.25;9.13;;;21.20;26.30;;;;;;5078313;28;20005;-74
2022/03/13 10:40:45;;;;;;;24.40;10.07;;;21.40;26.40;;;;;;5299274;23;20048;-73
2022/03/13 10:43:18;;;;;;;18.02;9.15;;;21.80;26.40;;;;;;5055234;28;20022;-74
2022/03/13 10:45:51;;;;;;;20.17;9.30;;;22.50;26.10;;;;;;5032564;28;20386;-72
2022/03/13 10:48:23;;;;;;;14.18;8.35;;;22.60;25.70;;;;;;5032490;28;20406;-72
2022/03/13 10:50:51;;;;;;;16.40;7.88;;;22.60;25.70;;;;;;5033965;28;20356;-73
2022/03/13 10:53:18;;;;;;;15.77;8.60;;;22.70;25.10;;;;;;5098902;22;20035;-75
2022/03/13 10:55:58;;;;;;;14.95;8.23;;;22.50;25.40;;;;;;5117059;28;20020;-74
2022/03/13 10:58:29;;;;;;;12.32;8.10;;;22.20;25.50;;;;;;5099498;28;20016;-73
2022/03/13 11:01:07;;;;;;;13.65;8.20;;;22.40;25.50;;;;;;5100640;28;20033;-74
2022/03/13 11:03:57;;;;;;;15.95;8.80;;;22.60;25.50;;;;;;5623883;22;20025;-75
2022/03/13 11:06:25;;;;;;;14.60;8.90;;;23.10;25.40;;;;;;5057608;28;20025;-74
2022/03/13 11:08:54;;;;;;;12.10;8.23;;;23.20;25.40;;;;;;5057754;28;20025;-73
2022/03/13 11:11:27;;;;;;;15.95;8.25;;;23.40;25.30;;;;;;5024325;28;20037;-74
2022/03/13 11:13:59;;;;;;;12.57;8.52;;;23.10;25.10;;;;;;5041442;28;20037;-75
2022/03/13 11:16:29;;;;;;;16.05;8.50;;;23.00;25.20;;;;;;5057482;28;20069;-74
2022/03/13 11:19:16;;;;;;;14.07;8.88;;;23.30;25.20;;;;;;5040616;28;20002;-74
2022/03/13 11:21:43;;;;;;;17.15;8.05;;;23.70;24.70;;;;;;5040718;28;20029;-75
2022/03/13 11:24:09;;;;;;;11.98;7.68;;;23.90;24.30;;;;;;5057330;28;20037;-73
2022/03/13 11:26:36;;;;;;;13.00;7.90;;;23.60;24.30;;;;;;5040492;28;20029;-75
2022/03/13 11:36:56;;;;;;;14.98;9.20;;;24.10;25.80;;;;;;5483139;22;20061;-74
2022/03/13 11:39:31;;;;;;;20.30;8.82;;;24.30;25.30;;;;;;5044174;28;20021;-73
2022/03/13 11:41:58;;;;;;;14.30;9.13;;;24.80;25.10;;;;;;5045179;28;20014;-72
2022/03/13 11:44:25;;;;;;;13.90;8.77;;;25.40;24.70;;;;;;5127804;22;20041;-73
2022/03/13 12:05:29;;;;;;;20.17;8.88;;;25.30;24.30;;;;;;1484703;26;20057;-75
2022/03/13 12:08:12;;;;;;;12.90;8.68;;;25.10;24.60;;;;;;5022507;28;20034;-74
2022/03/13 12:10:46;;;;;;;18.55;8.10;;;25.30;24.30;;;;;;5022385;28;20018;-73
2022/03/13 12:13:18;;;;;;;14.30;8.65;;;25.60;24.40;;;;;;5018335;28;20007;-74
2022/03/13 12:16:27;;;;;;;19.75;8.80;;;25.60;24.20;;;;;;5003357;28;20030;-71
2022/03/13 12:18:59;;;;;;;19.65;8.52;;;25.20;24.40;;;;;;5003081;28;20038;-74
2022/03/13 12:27:19;;;;;;;13.82;7.75;;;25.10;24.80;;;;;;5297658;22;20051;-71
2022/03/13 12:29:49;;;;;;;11.25;7.55;;;25.50;24.10;;;;;;5082173;28;20021;-72
2022/03/13 12:32:35;;;;;;;16.85;8.15;;;25.70;24.00;;;;;;5082108;28;20002;-73
2022/03/13 12:35:05;;;;;;;14.48;8.65;;;25.50;24.30;;;;;;5064051;28;20136;-73
2022/03/13 12:40:13;;;;;;;14.95;7.78;;;26.10;24.20;;;;;;4960436;26;20050;-74
2022/03/13 12:43:07;;;;;;;15.15;8.30;;;26.10;24.20;;;;;;5020071;28;20089;-73
2022/03/13 12:45:51;;;;;;;16.33;7.78;;;25.60;24.20;;;;;;5007005;28;20030;-73
2022/03/13 13:08:53;;;;;;;10.52;7.05;;;25.70;24.30;;;;;;5038208;28;20038;-73
2022/03/13 13:11:48;;;;;;;12.02;7.10;;;26.10;23.80;;;;;;5023575;28;20036;-72
2022/03/13 13:14:37;;;;;;;19.35;11.57;;;26.80;23.70;;;;;;5039444;28;20010;-72
2022/03/13 13:17:12;;;;;;;14.68;8.13;;;27.60;23.40;;;;;;5023253;28;20040;-70
2022/03/13 13:19:51;;;;;;;12.70;8.15;;;27.50;22.90;;;;;;5007068;28;20014;-73
2022/03/13 13:22:27;;;;;;;11.73;7.03;;;27.30;22.90;;;;;;5039800;28;20053;-72
2022/03/13 13:24:59;;;;;;;11.80;7.38;;;27.20;22.90;;;;;;5040240;28;20018;-71
2022/03/13 13:27:51;;;;;;;15.02;6.93;;;26.60;23.10;;;;;;5023626;28;20014;-70
2022/03/13 13:30:30;;;;;;;10.15;7.60;;;26.30;23.40;;;;;;5023190;28;20018;-71
2022/03/13 13:33:12;;;;;;;11.35;7.25;;;26.00;23.40;;;;;;5039767;28;20020;-70
2022/03/13 13:35:39;;;;;;;10.07;6.57;;;26.20;23.20;;;;;;5022555;28;20048;-71
2022/03/13 13:38:31;;;;;;;15.88;6.95;;;25.90;23.10;;;;;;5039470;28;20010;-71